createdAt,value
2022-12-03T00:01:19.798Z,35.71
2022-12-03T00:03:47.468Z,35.37
2022-12-03T00:06:15.062Z,34.77
2022-12-03T00:08:42.576Z,34.41
2022-12-03T00:11:10.000Z,34.11
2022-12-03T00:13:37.469Z,34.34
2022-12-03T00:16:05.378Z,35.04
2022-12-03T00:18:32.989Z,34.10
2022-12-03T00:21:00.634Z,34.57
2022-12-03T00:23:28.193Z,34.24
2022-12-03T00:25:55.741Z,34.15
2022-12-03T00:28:23.229Z,34.66
2022-12-03T00:30:54.315Z,34.61
2022-12-03T00:33:22.623Z,34.68
2022-12-03T00:35:50.247Z,34.60
2022-12-03T00:38:17.750Z,33.89
2022-12-03T00:40:45.262Z,34.54
2022-12-03T00:43:12.757Z,34.66
2022-12-03T00:45:40.257Z,33.84
2022-12-03T00:48:07.732Z,34.35
2022-12-03T00:50:35.285Z,34.87
2022-12-03T00:53:02.784Z,35.07
2022-12-03T00:55:30.310Z,34.81
2022-12-03T00:57:57.753Z,34.64
2022-12-03T01:00:25.708Z,34.83
2022-12-03T01:02:53.409Z,34.70
2022-12-03T01:05:21.253Z,34.47
2022-12-03T01:07:48.884Z,34.58
2022-12-03T01:10:16.592Z,34.62
2022-12-03T01:12:44.061Z,34.28
2022-12-03T01:15:11.949Z,34.70
2022-12-03T01:17:39.708Z,34.39
2022-12-03T01:20:09.549Z,34.44
2022-12-03T01:22:37.065Z,34.42
2022-12-03T01:25:05.105Z,34.80
2022-12-03T01:27:32.614Z,34.43
2022-12-03T01:30:00.137Z,33.84
2022-12-03T01:32:27.795Z,34.54
2022-12-03T01:34:56.649Z,34.45
2022-12-03T01:37:26.388Z,34.20
2022-12-03T01:39:54.566Z,34.32
2022-12-03T01:42:26.257Z,34.06
2022-12-03T01:44:56.364Z,34.46
2022-12-03T01:47:35.592Z,34.69
2022-12-03T01:50:30.797Z,34.79
2022-12-03T01:53:00.894Z,34.31
2022-12-03T01:55:29.220Z,34.46
2022-12-03T01:58:00.036Z,34.44
2022-12-03T02:00:29.486Z,33.81
2022-12-03T02:03:02.726Z,34.00
2022-12-03T02:05:34.225Z,34.14
2022-12-03T02:08:02.013Z,34.74
2022-12-03T02:10:36.502Z,34.05
2022-12-03T02:13:09.783Z,33.95
2022-12-03T02:15:39.712Z,33.94
2022-12-03T02:18:09.315Z,34.35
2022-12-03T02:20:51.523Z,34.15
2022-12-03T02:23:41.967Z,34.70
2022-12-03T02:26:09.496Z,33.95
2022-12-03T02:28:38.441Z,34.27
2022-12-03T02:31:06.629Z,34.32
2022-12-03T02:33:34.463Z,34.87
2022-12-03T02:36:04.088Z,34.63
2022-12-03T02:38:33.862Z,34.76
2022-12-03T02:41:06.400Z,34.98
2022-12-03T02:43:34.166Z,35.40
2022-12-03T02:46:03.794Z,34.72
2022-12-03T02:48:37.793Z,35.06
2022-12-03T02:51:09.041Z,35.04
2022-12-03T02:53:42.878Z,35.30
2022-12-03T02:56:13.299Z,34.87
2022-12-03T02:58:43.701Z,35.21
2022-12-03T03:01:11.641Z,34.63
2022-12-03T03:03:40.256Z,35.43
2022-12-03T03:06:09.018Z,34.84
2022-12-03T03:08:38.446Z,35.07
2022-12-03T03:11:06.387Z,34.82
2022-12-03T03:13:35.737Z,35.02
2022-12-03T03:16:06.374Z,35.45
2022-12-03T03:18:35.319Z,34.86
2022-12-03T03:21:04.264Z,35.18
2022-12-03T03:23:31.850Z,35.03
2022-12-03T03:26:00.644Z,35.27
2022-12-03T03:28:30.696Z,35.01
2022-12-03T03:31:00.977Z,35.60
2022-12-03T03:33:28.907Z,34.94
2022-12-03T03:35:57.380Z,34.95
2022-12-03T03:38:25.290Z,35.42
2022-12-03T03:40:53.671Z,35.45
2022-12-03T03:43:23.321Z,34.49
2022-12-03T03:45:51.907Z,34.96
2022-12-03T03:48:20.487Z,35.44
2022-12-03T03:50:48.600Z,35.70
2022-12-03T03:53:17.247Z,35.41
2022-12-03T03:55:45.322Z,35.34
2022-12-03T03:58:13.525Z,35.19
2022-12-03T04:00:44.658Z,34.88
2022-12-03T04:03:13.096Z,35.56
2022-12-03T04:05:40.929Z,35.32
2022-12-03T04:08:08.538Z,35.18
2022-12-03T04:10:54.414Z,34.73
2022-12-03T04:13:21.929Z,35.13
2022-12-03T04:15:49.526Z,35.23
2022-12-03T04:18:35.192Z,35.45
2022-12-03T04:21:21.142Z,35.50
2022-12-03T04:23:48.628Z,35.61
2022-12-03T04:26:34.277Z,35.14
2022-12-03T04:29:01.903Z,35.89
2022-12-03T04:31:47.992Z,36.26
2022-12-03T04:34:33.694Z,35.71
2022-12-03T04:37:01.194Z,35.21
2022-12-03T04:39:28.706Z,34.51
2022-12-03T04:41:56.182Z,34.02
2022-12-03T04:44:38.516Z,33.50
2022-12-03T04:47:09.577Z,32.78
2022-12-03T04:49:39.706Z,32.86
2022-12-03T04:52:07.742Z,31.88
2022-12-03T04:54:35.573Z,31.82
2022-12-03T04:57:03.516Z,31.74
2022-12-03T04:59:31.086Z,31.39
2022-12-03T05:01:58.931Z,31.53
2022-12-03T05:04:26.998Z,30.90
2022-12-03T05:06:54.590Z,30.15
2022-12-03T05:09:22.183Z,29.72
2022-12-03T05:11:49.699Z,29.42
2022-12-03T05:14:17.241Z,28.59
2022-12-03T05:16:44.867Z,28.25
2022-12-03T05:19:12.354Z,28.11
2022-12-03T05:21:39.901Z,27.31
2022-12-03T05:24:07.481Z,27.06
2022-12-03T05:26:35.131Z,26.80
2022-12-03T05:29:02.892Z,26.23
2022-12-03T05:31:30.436Z,25.16
2022-12-03T05:33:57.977Z,24.65
2022-12-03T05:36:25.851Z,24.75
2022-12-03T05:38:53.352Z,24.14
2022-12-03T05:41:39.071Z,23.86
2022-12-03T05:44:06.732Z,23.09
2022-12-03T05:46:34.317Z,22.86
2022-12-03T05:49:01.801Z,22.71
2022-12-03T05:51:29.451Z,22.23
2022-12-03T05:53:57.707Z,22.56
2022-12-03T05:56:25.163Z,21.83
2022-12-03T05:58:52.691Z,21.35
2022-12-03T06:01:22.056Z,20.86
2022-12-03T06:03:49.640Z,20.43
2022-12-03T06:06:17.262Z,20.29
2022-12-03T06:08:44.825Z,19.86
2022-12-03T06:11:12.318Z,20.21
2022-12-03T06:13:39.748Z,19.81
2022-12-03T06:16:07.429Z,19.55
2022-12-03T06:18:34.950Z,19.22
2022-12-03T06:21:02.409Z,18.95
2022-12-03T06:23:29.862Z,18.75
2022-12-03T06:25:57.389Z,18.75
2022-12-03T06:28:24.825Z,18.58
2022-12-03T06:30:52.495Z,18.27
2022-12-03T06:33:19.906Z,17.91
2022-12-03T06:35:47.371Z,17.91
2022-12-03T06:38:14.864Z,17.89
2022-12-03T06:40:42.374Z,17.52
2022-12-03T06:43:09.831Z,17.25
2022-12-03T06:45:37.305Z,17.33
2022-12-03T06:48:05.110Z,17.38
2022-12-03T06:50:32.561Z,17.25
2022-12-03T06:53:00.075Z,17.33
2022-12-03T06:55:27.712Z,17.37
2022-12-03T06:57:55.079Z,17.63
2022-12-03T07:00:22.843Z,17.40
2022-12-03T07:02:51.761Z,17.18
2022-12-03T07:05:20.282Z,17.63
2022-12-03T07:07:52.312Z,17.31
2022-12-03T07:10:20.064Z,18.08
2022-12-03T07:12:47.682Z,18.50
2022-12-03T07:15:15.255Z,19.08
2022-12-03T07:17:42.775Z,19.59
2022-12-03T07:20:11.028Z,19.35
2022-12-03T07:22:38.564Z,19.93
2022-12-03T07:25:06.698Z,19.99
2022-12-03T07:27:34.128Z,19.82
2022-12-03T07:30:01.620Z,19.67
2022-12-03T07:32:29.524Z,20.33
2022-12-03T07:34:57.005Z,20.25
2022-12-03T07:37:24.456Z,20.99
2022-12-03T07:39:52.872Z,21.34
2022-12-03T07:42:20.444Z,21.77
2022-12-03T07:44:47.965Z,22.30
2022-12-03T07:47:15.398Z,22.47
2022-12-03T07:49:42.880Z,22.87
2022-12-03T07:52:10.372Z,23.29
2022-12-03T07:54:37.898Z,24.45
2022-12-03T07:57:05.275Z,24.30
2022-12-03T07:59:32.857Z,25.06
2022-12-03T08:02:00.438Z,25.40
2022-12-03T08:04:27.970Z,25.94
2022-12-03T08:06:55.600Z,25.46
2022-12-03T08:09:23.046Z,26.36
2022-12-03T08:11:50.832Z,26.22
2022-12-03T08:14:20.484Z,26.28
2022-12-03T08:16:49.170Z,27.06
2022-12-03T08:19:18.576Z,26.98
2022-12-03T08:21:46.337Z,27.14
2022-12-03T08:24:19.798Z,27.46
2022-12-03T08:26:49.160Z,27.92
2022-12-03T08:29:18.928Z,28.48
2022-12-03T08:31:52.595Z,28.21
2022-12-03T08:34:26.755Z,28.53
2022-12-03T08:37:06.730Z,28.22
2022-12-03T08:39:40.878Z,28.77
2022-12-03T08:42:26.962Z,28.69
2022-12-03T08:44:56.219Z,28.97
2022-12-03T08:47:25.307Z,29.17
2022-12-03T08:49:58.421Z,29.86
2022-12-03T08:52:33.817Z,29.69
2022-12-03T08:55:23.330Z,29.42
2022-12-03T08:57:50.977Z,30.19
2022-12-03T09:00:23.347Z,30.39
2022-12-03T09:02:55.340Z,30.26
2022-12-03T09:05:27.739Z,30.26
2022-12-03T09:07:55.255Z,30.07
2022-12-03T09:10:22.758Z,30.61
2022-12-03T09:12:50.344Z,30.52
2022-12-03T09:15:17.894Z,31.15
2022-12-03T09:17:45.575Z,31.17
2022-12-03T09:20:13.223Z,31.48
2022-12-03T09:22:40.701Z,32.08
2022-12-03T09:25:08.475Z,31.73
2022-12-03T09:27:36.057Z,32.11
2022-12-03T09:30:04.804Z,32.01
2022-12-03T09:32:32.527Z,32.29
2022-12-03T09:35:00.106Z,32.25
2022-12-03T09:37:27.626Z,32.15
2022-12-03T09:39:55.142Z,32.66
2022-12-03T09:42:22.943Z,32.83
2022-12-03T09:44:50.445Z,32.92
2022-12-03T09:47:18.435Z,32.78
2022-12-03T09:49:46.149Z,32.50
2022-12-03T09:52:23.849Z,32.96
2022-12-03T09:54:52.761Z,32.91
2022-12-03T09:57:20.810Z,32.31
2022-12-03T09:59:48.324Z,32.82
2022-12-03T10:02:24.757Z,34.25
2022-12-03T10:04:53.582Z,34.57
2022-12-03T10:07:21.361Z,35.23
2022-12-03T10:09:48.917Z,33.91
2022-12-03T10:12:23.867Z,34.17
2022-12-03T10:14:53.108Z,34.40
2022-12-03T10:17:20.835Z,33.98
2022-12-03T10:19:48.936Z,34.27
2022-12-03T10:22:16.494Z,33.73
2022-12-03T10:24:45.155Z,33.73
2022-12-03T10:27:29.751Z,33.77
2022-12-03T10:29:59.654Z,34.23
2022-12-03T10:32:45.709Z,35.10
2022-12-03T10:35:17.549Z,34.71
2022-12-03T10:38:07.702Z,33.99
2022-12-03T10:40:38.075Z,34.58
2022-12-03T10:43:20.610Z,35.11
2022-12-03T10:46:17.359Z,35.56
2022-12-03T10:48:44.957Z,35.88
2022-12-03T10:51:22.905Z,35.50
2022-12-03T10:53:51.345Z,36.27
2022-12-03T10:56:25.223Z,35.53
2022-12-03T10:58:53.598Z,36.01
2022-12-03T11:01:26.485Z,36.13
2022-12-03T11:04:05.022Z,36.33
2022-12-03T11:06:35.194Z,36.04
2022-12-03T11:09:08.877Z,36.23
2022-12-03T11:11:37.144Z,37.07
2022-12-03T11:14:05.309Z,36.70
2022-12-03T11:16:42.077Z,36.99
2022-12-03T11:19:18.104Z,37.39
2022-12-03T11:22:07.064Z,38.11
2022-12-03T11:24:37.156Z,37.58
2022-12-03T11:27:04.629Z,38.24
2022-12-03T11:30:10.922Z,37.86
2022-12-03T11:32:38.359Z,37.71
2022-12-03T11:35:12.885Z,38.74
2022-12-03T11:37:40.539Z,38.64
2022-12-03T11:40:17.281Z,38.64
2022-12-03T11:42:47.027Z,38.52
2022-12-03T11:45:37.164Z,38.85
2022-12-03T11:48:16.462Z,43.12
2022-12-03T11:50:54.307Z,40.89
2022-12-03T11:53:25.232Z,40.53
2022-12-03T11:56:09.335Z,39.57
2022-12-03T11:58:43.381Z,43.50
2022-12-03T12:01:11.186Z,40.38
2022-12-03T12:03:50.404Z,39.73
2022-12-03T12:06:20.853Z,39.28
2022-12-03T12:08:51.593Z,39.21
2022-12-03T12:11:29.719Z,43.00
2022-12-03T12:14:08.041Z,41.72
2022-12-03T12:16:50.704Z,41.00
2022-12-03T12:19:34.013Z,40.38
2022-12-03T12:22:25.282Z,39.90
2022-12-03T12:25:00.865Z,40.36
2022-12-03T12:27:35.355Z,44.61
2022-12-03T12:30:23.541Z,41.38
2022-12-03T12:33:16.117Z,41.55
2022-12-03T12:35:43.842Z,41.03
2022-12-03T12:38:17.609Z,41.86
2022-12-03T12:40:49.394Z,41.36
2022-12-03T12:43:24.159Z,42.07
2022-12-03T12:46:09.454Z,40.84
2022-12-03T12:48:47.856Z,40.54
2022-12-03T12:51:19.928Z,40.61
2022-12-03T12:53:48.269Z,41.79
2022-12-03T12:56:31.374Z,42.71
2022-12-03T12:59:16.316Z,42.61
2022-12-03T13:01:45.143Z,40.21
2022-12-03T13:04:16.428Z,40.70
2022-12-03T13:06:44.683Z,39.78
2022-12-03T13:09:19.375Z,40.90
2022-12-03T13:11:52.485Z,40.80
2022-12-03T13:14:25.516Z,40.13
2022-12-03T13:16:55.639Z,40.09
2022-12-03T13:19:30.574Z,39.40
2022-12-03T13:22:01.968Z,39.69
2022-12-03T13:24:34.173Z,40.08
2022-12-03T13:27:20.090Z,40.26
2022-12-03T13:29:54.821Z,39.72
2022-12-03T13:32:27.951Z,40.23
2022-12-03T13:35:04.348Z,40.09
2022-12-03T13:37:32.419Z,39.50
2022-12-03T13:40:12.312Z,39.85
2022-12-03T13:42:40.947Z,39.46
2022-12-03T13:45:35.843Z,39.96
2022-12-03T13:48:22.094Z,39.56
2022-12-03T13:50:50.804Z,39.35
2022-12-03T13:53:33.371Z,39.82
2022-12-03T13:56:16.926Z,39.25
2022-12-03T13:58:44.365Z,40.54
2022-12-03T14:01:11.946Z,40.38
2022-12-03T14:03:39.362Z,39.93
2022-12-03T14:06:07.346Z,42.74
2022-12-03T14:08:34.867Z,42.94
2022-12-03T14:11:02.774Z,40.93
2022-12-03T14:13:30.327Z,40.73
2022-12-03T14:15:57.892Z,41.07
2022-12-03T14:18:25.508Z,41.88
2022-12-03T14:20:52.964Z,41.38
2022-12-03T14:23:20.486Z,40.46
2022-12-03T14:25:47.912Z,40.35
2022-12-03T14:28:15.479Z,39.72
2022-12-03T14:30:42.989Z,40.52
2022-12-03T14:33:10.533Z,40.60
2022-12-03T14:35:38.011Z,40.06
2022-12-03T14:38:05.522Z,40.38
2022-12-03T14:40:33.145Z,39.97
2022-12-03T14:43:00.626Z,40.45
2022-12-03T14:45:30.175Z,40.26
2022-12-03T14:47:57.743Z,39.46
2022-12-03T14:50:26.602Z,39.94
2022-12-03T14:52:54.283Z,40.33
2022-12-03T14:55:21.938Z,40.33
2022-12-03T14:57:50.601Z,39.31
2022-12-03T15:00:18.766Z,39.86
2022-12-03T15:02:46.462Z,39.60
2022-12-03T15:05:14.079Z,39.35
2022-12-03T15:07:41.693Z,39.32
2022-12-03T15:10:09.701Z,39.89
2022-12-03T15:12:37.222Z,40.29
2022-12-03T15:15:05.011Z,40.55
2022-12-03T15:17:32.782Z,40.85
2022-12-03T15:20:00.837Z,40.52
2022-12-03T15:22:28.728Z,40.44
2022-12-03T15:24:56.198Z,41.43
2022-12-03T15:27:23.700Z,40.60
2022-12-03T15:29:51.573Z,40.20
2022-12-03T15:32:19.222Z,40.76
2022-12-03T15:34:47.069Z,40.42
2022-12-03T15:37:20.062Z,42.00
2022-12-03T15:39:50.387Z,40.65
2022-12-03T15:42:17.956Z,40.92
2022-12-03T15:44:46.509Z,46.69
2022-12-03T15:47:14.001Z,45.29
2022-12-03T15:49:41.475Z,48.46
2022-12-03T15:52:08.949Z,46.77
2022-12-03T15:54:36.587Z,47.01
2022-12-03T15:57:04.217Z,44.96
2022-12-03T15:59:31.801Z,43.11
2022-12-03T16:01:59.393Z,43.94
2022-12-03T16:04:27.011Z,42.46
2022-12-03T16:06:54.565Z,42.97
2022-12-03T16:09:27.159Z,45.11
2022-12-03T16:11:55.312Z,47.67
2022-12-03T16:14:22.911Z,47.13
2022-12-03T16:16:50.478Z,49.29
2022-12-03T16:19:17.990Z,46.93
2022-12-03T16:21:45.537Z,44.89
2022-12-03T16:24:13.208Z,43.32
2022-12-03T16:26:40.698Z,41.97
2022-12-03T16:29:23.625Z,41.92
2022-12-03T16:31:51.156Z,41.85
2022-12-03T16:34:18.709Z,41.61
2022-12-03T16:36:47.851Z,43.05
2022-12-03T16:39:16.710Z,43.20
2022-12-03T16:41:44.587Z,41.43
2022-12-03T16:44:20.584Z,41.64
2022-12-03T16:46:48.137Z,42.67
2022-12-03T16:49:15.793Z,42.87
2022-12-03T16:51:43.237Z,42.33
2022-12-03T16:54:11.984Z,42.65
2022-12-03T16:56:39.482Z,41.67
2022-12-03T16:59:06.912Z,41.51
2022-12-03T17:01:34.495Z,42.08
2022-12-03T17:04:02.043Z,40.71
2022-12-03T17:06:29.543Z,41.58
2022-12-03T17:08:57.009Z,41.84
2022-12-03T17:11:24.642Z,42.24
2022-12-03T17:13:52.099Z,41.12
2022-12-03T17:16:19.646Z,40.69
2022-12-03T17:18:48.294Z,40.95
2022-12-03T17:21:15.885Z,40.57
2022-12-03T17:23:45.003Z,44.85
2022-12-03T17:26:13.934Z,45.83
2022-12-03T17:28:41.475Z,43.65
2022-12-03T17:31:08.987Z,43.67
2022-12-03T17:33:36.660Z,42.85
2022-12-03T17:36:04.607Z,45.27
2022-12-03T17:38:37.332Z,48.11
2022-12-03T17:41:07.608Z,46.68
2022-12-03T17:43:35.156Z,44.77
2022-12-03T17:46:02.660Z,44.01
2022-12-03T17:48:31.549Z,43.53
2022-12-03T17:50:59.346Z,42.82
2022-12-03T17:53:26.810Z,41.48
2022-12-03T17:55:54.360Z,41.21
2022-12-03T17:58:21.910Z,40.77
2022-12-03T18:00:49.461Z,40.47
2022-12-03T18:03:16.901Z,40.39
2022-12-03T18:05:45.134Z,40.29
2022-12-03T18:08:12.649Z,40.43
2022-12-03T18:10:40.134Z,40.93
2022-12-03T18:13:07.742Z,40.76
2022-12-03T18:15:35.246Z,40.66
2022-12-03T18:18:02.730Z,40.72
2022-12-03T18:20:31.620Z,40.24
2022-12-03T18:23:00.668Z,40.46
2022-12-03T18:25:28.837Z,40.20
2022-12-03T18:27:56.917Z,41.05
2022-12-03T18:30:24.567Z,41.03
2022-12-03T18:32:52.190Z,41.12
2022-12-03T18:35:20.955Z,41.09
2022-12-03T18:37:51.475Z,41.29
2022-12-03T18:40:27.408Z,41.28
2022-12-03T18:42:57.770Z,42.23
2022-12-03T18:45:25.295Z,41.58
2022-12-03T18:47:52.928Z,41.79
2022-12-03T18:50:20.531Z,40.53
2022-12-03T18:52:47.975Z,41.29
2022-12-03T18:55:19.367Z,41.04
2022-12-03T18:57:46.867Z,40.81
2022-12-03T19:00:15.995Z,40.73
2022-12-03T19:03:02.600Z,40.39
2022-12-03T19:05:33.136Z,40.21
2022-12-03T19:08:01.139Z,40.61
2022-12-03T19:10:28.882Z,40.89
2022-12-03T19:12:56.390Z,40.43
2022-12-03T19:15:24.309Z,40.59
2022-12-03T19:17:51.846Z,40.36
2022-12-03T19:20:19.407Z,41.45
2022-12-03T19:22:46.909Z,40.94
2022-12-03T19:25:14.369Z,40.35
2022-12-03T19:27:41.797Z,40.18
2022-12-03T19:30:10.757Z,40.92
2022-12-03T19:32:38.275Z,40.78
2022-12-03T19:35:07.790Z,40.93
2022-12-03T19:37:35.374Z,40.48
2022-12-03T19:40:03.409Z,40.08
2022-12-03T19:42:31.589Z,40.06
2022-12-03T19:44:59.206Z,40.05
2022-12-03T19:47:26.859Z,40.70
2022-12-03T19:49:54.559Z,40.97
2022-12-03T19:52:22.265Z,40.35
2022-12-03T19:54:49.732Z,40.34
2022-12-03T19:57:23.071Z,40.55
2022-12-03T19:59:52.302Z,40.80
2022-12-03T20:02:20.043Z,40.52
2022-12-03T20:04:47.565Z,40.10
2022-12-03T20:07:15.081Z,40.54
2022-12-03T20:09:42.645Z,41.21
2022-12-03T20:12:29.992Z,41.31
2022-12-03T20:14:57.642Z,40.97
2022-12-03T20:17:25.170Z,40.60
2022-12-03T20:19:52.721Z,40.40
2022-12-03T20:22:20.404Z,40.13
2022-12-03T20:24:47.922Z,40.53
2022-12-03T20:27:22.681Z,41.52
2022-12-03T20:29:50.557Z,41.48
2022-12-03T20:32:18.061Z,40.92
2022-12-03T20:34:45.910Z,41.11
2022-12-03T20:37:13.343Z,41.37
2022-12-03T20:39:40.886Z,42.01
2022-12-03T20:42:13.189Z,43.05
2022-12-03T20:44:40.620Z,42.67
2022-12-03T20:47:08.166Z,41.84
2022-12-03T20:49:39.281Z,42.29
2022-12-03T20:52:06.677Z,41.78
2022-12-03T20:54:34.259Z,42.44
2022-12-03T20:57:01.696Z,43.69
2022-12-03T20:59:30.519Z,42.65
2022-12-03T21:01:58.179Z,43.00
2022-12-03T21:04:25.673Z,43.77
2022-12-03T21:06:54.380Z,42.18
2022-12-03T21:09:21.854Z,42.28
2022-12-03T21:11:49.459Z,41.44
2022-12-03T21:14:16.969Z,42.29
2022-12-03T21:19:37.140Z,42.73
2022-12-03T21:22:04.884Z,43.14
2022-12-03T21:24:33.709Z,42.25
2022-12-03T21:27:01.344Z,41.63
2022-12-03T21:29:28.834Z,41.82
2022-12-03T21:31:56.329Z,41.69
2022-12-03T21:34:23.876Z,41.83
2022-12-03T21:36:51.378Z,40.91
2022-12-03T21:39:19.691Z,40.79
2022-12-03T21:42:34.252Z,40.24
2022-12-03T21:44:36.133Z,40.86
2022-12-03T21:47:12.823Z,39.80
2022-12-03T21:49:42.076Z,40.57
2022-12-03T21:52:10.467Z,41.33
2022-12-03T21:54:38.027Z,40.80
2022-12-03T21:57:05.481Z,40.69
2022-12-03T21:59:33.148Z,40.46
2022-12-03T22:02:00.624Z,40.52
2022-12-03T22:04:28.361Z,40.49
2022-12-03T22:06:55.846Z,40.54
2022-12-03T22:09:26.520Z,41.83
2022-12-03T22:11:59.567Z,41.05
2022-12-03T22:14:28.127Z,40.28
2022-12-03T22:16:55.829Z,40.32
2022-12-03T22:19:23.877Z,40.00
2022-12-03T22:21:51.449Z,41.39
2022-12-03T22:24:19.821Z,41.41
2022-12-03T22:26:47.870Z,42.07
2022-12-03T22:29:15.682Z,41.25
2022-12-03T22:31:43.188Z,41.66
2022-12-03T22:34:10.734Z,41.78
2022-12-03T22:36:38.455Z,42.07
2022-12-03T22:39:05.993Z,42.75
2022-12-03T22:41:33.417Z,42.40
2022-12-03T22:44:00.909Z,45.93
2022-12-03T22:46:28.489Z,47.81
2022-12-03T22:48:56.009Z,47.62
2022-12-03T22:51:25.652Z,47.30
2022-12-03T22:54:01.474Z,47.25
2022-12-03T22:56:30.807Z,47.28
2022-12-03T22:58:59.706Z,47.15
2022-12-03T23:01:30.209Z,44.29
2022-12-03T23:03:58.097Z,44.30
2022-12-03T23:06:26.381Z,42.81
2022-12-03T23:08:54.303Z,43.97
2022-12-03T23:11:22.618Z,44.88
2022-12-03T23:13:50.180Z,44.43
2022-12-03T23:16:21.287Z,43.37
2022-12-03T23:18:49.093Z,47.03
2022-12-03T23:21:25.412Z,44.50
2022-12-03T23:23:56.369Z,44.46
2022-12-03T23:26:23.864Z,43.60
2022-12-03T23:28:51.318Z,43.91
2022-12-03T23:31:27.209Z,42.19
2022-12-03T23:33:56.098Z,42.37
2022-12-03T23:36:25.536Z,43.39
2022-12-03T23:38:53.096Z,44.54
2022-12-03T23:41:22.613Z,47.42
2022-12-03T23:43:50.589Z,45.78
2022-12-03T23:46:21.409Z,45.38
2022-12-03T23:48:49.569Z,47.46
2022-12-03T23:51:20.018Z,45.91
2022-12-03T23:53:48.045Z,44.77
2022-12-03T23:56:18.724Z,44.51
2022-12-03T23:58:46.714Z,44.25
